Lakefront Airport
KNEW : rendu visible

Aérodrome :











RETROUVEZ-NOUS SUR...

 
LOGIN :

S'inscrire | Disclaimer

   EN    FR    IT 

 









Légende :    VFR   VFR Marginal   IFR   IFR Intensif   IFR Très Intensif
Visi : 
Plafond : 
>= 8 km
>= 3000ft
5 à 8 km
1000 à 3000 ft
1500m à 5 km
500 à 1000 ft
800 à 1500m
200 à 500 ft
< 800m
< 200 ft
Symboles :   Orages  Brouillard  Fortes neiges  Fortes précipitations  Vent > 20 kt






- Altitude de l'aérodrome : 8 ft


KNEW - Lakefront

DERNIER METAR :
  • 210253Z AUTO 02021KT 10SM CLR 08/M04 A3047 RMK AO2 PK WND 02026/0232 SLP311 T00781039 51015

METARs EXPIRÉS :
  • 210153Z 01019KT 10SM CLR 08/M04 A3047 RMK AO2 SLP310 T00831044
  • 210053Z 36017KT 10SM CLR 09/M04 A3045 RMK AO2 SLP303 T00891039

TAF KNEW
Valide du 21 à 00h jusqu'au 22 à 00h UTC


202346Z 2100/2124 35014G20KT P6SM SKC
FM210600 02013KT P6SM SKC



MET'MAP, la Météo Aéronautique d'un coup d'oeil ! - Copyright ORBIFLY Décembre 2007 - Disclaimer

ORBIFLY MET'MAP TEAM :

Programmation & Développement : Alexandra Zaïnal
Sur une idée originale de : Baudouin d'Aumeries
Assistance à la programmation : Marc-Olivier Méhu
Soutien technique & logistique : Manuel Goepfert

Contact : metmap@orbifly.com




SOURCES & CREDITS :

   NOAA       Earth
Advisory